Time;durP1;ratioP1;P1;durP2;ratioP2;P2;SDS_P1;SDS_P2;PMS_P1;PMS_P2;Temp;Humidity;BMP_temperature;BMP_pressure;BME280_temperature;BME280_humidity;BME280_pressure;Samples;Min_cycle;Max_cycle;Signal;HPM_P1;HPM_P2
2023/04/30 00:01:10;;;;;;;9.57;8.13;;;8.70;99.90;;;-141.84;75.54;19541.50;5029981;28;20210;-54
2023/04/30 00:03:38;;;;;;;10.23;8.87;;;8.70;99.90;;;-141.84;75.32;19537.44;5029537;28;20545;-55
2023/04/30 00:06:08;;;;;;;10.40;8.30;;;8.70;99.90;;;-141.84;75.54;19547.59;5013203;28;20199;-52
2023/04/30 00:08:36;;;;;;;11.37;8.77;;;8.60;99.90;;;-141.84;76.05;19496.81;5013111;28;20203;-56
2023/04/30 00:11:04;;;;;;;11.07;7.93;;;8.50;99.90;;;-141.84;75.85;19488.69;5013264;28;20198;-54
2023/04/30 00:13:33;;;;;;;10.27;8.00;;;8.50;99.90;;;-141.84;76.16;19525.25;5013127;28;20206;-54
2023/04/30 00:16:01;;;;;;;7.93;7.13;;;8.40;99.90;;;-141.84;75.21;19498.84;5013286;28;20218;-55
2023/04/30 00:18:29;;;;;;;8.47;6.60;;;8.40;99.90;;;-141.84;74.92;19511.03;5012721;28;20620;-57
2023/04/30 00:20:57;;;;;;;7.53;6.53;;;8.40;99.90;;;-141.84;74.67;19504.94;5012775;28;20636;-53
2023/04/30 00:23:27;;;;;;;6.97;6.17;;;8.30;99.90;;;-141.84;74.92;19496.81;5012941;28;20214;-54
2023/04/30 00:25:55;;;;;;;7.37;5.60;;;8.30;99.90;;;-141.84;74.19;19525.25;5012486;28;20195;-53
2023/04/30 00:28:23;;;;;;;7.53;6.13;;;8.30;99.90;;;-141.84;74.91;19515.09;5027723;28;20187;-51
2023/04/30 00:30:51;;;;;;;7.70;5.57;;;8.20;99.90;;;-141.84;73.71;19529.31;5031963;28;20553;-56
2023/04/30 00:33:19;;;;;;;6.27;5.57;;;8.20;99.90;;;-141.84;73.43;19480.53;5032557;28;20209;-54
2023/04/30 00:35:48;;;;;;;6.33;5.60;;;8.20;99.90;;;-141.84;72.36;19525.25;5032325;28;20225;-53
2023/04/30 00:38:16;;;;;;;6.93;5.97;;;8.20;99.90;;;-141.84;71.99;19517.13;5032272;28;20213;-54
2023/04/30 00:40:47;;;;;;;5.87;5.27;;;8.20;99.90;;;-141.84;73.13;19506.97;5032155;28;20210;-57
2023/04/30 00:43:15;;;;;;;6.73;5.53;;;8.10;99.90;;;-141.84;74.24;19478.50;5032391;28;20190;-53
2023/04/30 00:45:43;;;;;;;6.43;4.70;;;8.00;99.90;;;-141.84;74.10;19456.16;5032441;28;20548;-55
2023/04/30 00:48:11;;;;;;;5.63;5.13;;;7.90;99.90;;;-141.84;73.86;19448.03;5016813;28;20246;-56
2023/04/30 00:50:41;;;;;;;5.37;4.80;;;7.90;99.90;;;-141.84;74.34;19448.03;5012374;28;20209;-53
2023/04/30 00:53:10;;;;;;;5.40;4.20;;;7.80;99.90;;;-141.84;74.23;19464.28;5013072;28;20203;-52
2023/04/30 00:55:39;;;;;;;5.27;4.03;;;7.70;99.90;;;-141.84;74.34;19460.22;5012696;28;20223;-53
2023/04/30 00:58:09;;;;;;;4.27;3.87;;;7.60;99.90;;;-141.84;73.88;19427.72;5024977;28;20205;-55
2023/04/30 01:00:37;;;;;;;5.77;4.10;;;7.60;99.90;;;-141.84;72.99;19474.44;5032436;28;20206;-52
2023/04/30 01:03:06;;;;;;;8.17;4.00;;;7.60;99.90;;;-141.84;73.17;19474.44;5032191;28;20213;-57
2023/04/30 01:05:34;;;;;;;4.90;3.60;;;7.60;99.90;;;-141.84;72.59;19429.75;5032168;28;20202;-54
2023/04/30 01:08:02;;;;;;;4.70;3.77;;;7.60;99.90;;;-141.84;73.22;19452.09;5032282;28;20210;-55
2023/04/30 01:10:42;;;;;;;6.93;3.67;;;7.50;99.90;;;-141.84;73.62;19446.00;5032173;28;20202;-53
2023/04/30 01:13:21;;;;;;;5.23;3.80;;;7.40;99.90;;;-141.84;73.50;19423.66;5019617;28;20202;-52
2023/04/30 01:16:06;;;;;;;4.43;3.73;;;7.40;99.90;;;-141.84;73.02;19435.84;5012324;28;20211;-55
2023/04/30 01:18:46;;;;;;;4.00;3.60;;;7.40;99.90;;;-141.84;74.54;19401.28;5012285;28;20226;-56
2023/04/30 01:21:19;;;;;;;8.33;4.30;;;7.30;99.90;;;-141.84;74.10;19439.91;5012715;28;20186;-55
2023/04/30 01:24:21;;;;;;;8.00;4.33;;;7.30;99.90;;;-141.84;74.61;19415.50;5012368;28;20240;-56
2023/04/30 01:27:06;;;;;;;5.57;4.10;;;7.30;99.90;;;-141.84;75.29;19409.41;5014157;28;20226;-55
2023/04/30 01:29:41;;;;;;;5.97;4.17;;;7.30;99.90;;;-141.84;76.31;19385.03;5032281;28;20198;-54
2023/04/30 01:32:10;;;;;;;5.57;3.90;;;7.20;99.90;;;-141.84;75.42;19391.13;5032207;28;20201;-55
2023/04/30 01:34:39;;;;;;;5.43;3.90;;;7.20;99.90;;;-141.84;74.37;19421.63;5031916;28;20214;-54
2023/04/30 01:37:21;;;;;;;5.60;3.70;;;7.10;99.90;;;-141.84;73.88;19433.81;5033427;28;20225;-54
2023/04/30 01:40:08;;;;;;;5.60;3.83;;;7.20;99.90;;;-141.84;71.89;19450.06;5035699;28;20205;-56
2023/04/30 01:42:47;;;;;;;4.10;3.70;;;7.20;99.90;;;-141.84;72.08;19464.28;5035370;28;20210;-58
2023/04/30 01:45:41;;;;;;;5.37;3.80;;;7.30;99.90;;;-141.84;72.26;19397.22;5035480;28;20573;-58
2023/04/30 01:48:28;;;;;;;6.73;3.73;;;7.30;99.90;;;-141.84;73.57;19427.72;5021488;28;20207;-54
2023/04/30 01:51:09;;;;;;;6.57;3.73;;;7.20;99.90;;;-141.84;74.10;19376.91;5015471;28;20290;-55
2023/04/30 01:53:42;;;;;;;6.27;3.80;;;7.10;99.90;;;-141.84;73.52;19439.91;5021770;28;20214;-54
2023/04/30 01:56:21;;;;;;;5.63;3.50;;;7.10;99.90;;;-141.84;73.03;19431.78;5035109;28;20213;-55
2023/04/30 01:58:52;;;;;;;7.07;4.10;;;7.10;99.90;;;-141.84;73.25;19413.47;5035557;28;20249;-53
2023/04/30 02:01:31;;;;;;;5.27;4.20;;;7.10;99.90;;;-141.84;73.30;19383.00;5035209;28;20207;-56
2023/04/30 02:04:00;;;;;;;6.47;4.23;;;7.10;99.90;;;-141.84;73.41;19419.59;5034670;28;20237;-54
2023/04/30 02:06:29;;;;;;;5.03;4.23;;;7.10;99.90;;;-141.84;73.11;19403.31;5034852;28;20724;-55
2023/04/30 02:09:01;;;;;;;6.27;4.67;;;7.00;99.90;;;-141.84;74.10;19407.38;5026490;28;20207;-55
2023/04/30 02:11:30;;;;;;;4.47;4.03;;;6.90;99.90;;;-141.84;74.09;19364.72;5015279;28;20211;-57
2023/04/30 02:13:58;;;;;;;6.93;4.13;;;6.90;99.90;;;-141.84;73.87;19413.47;5014868;28;20264;-54
2023/04/30 02:16:28;;;;;;;7.37;4.23;;;6.90;99.90;;;-141.84;72.99;19415.50;5014862;28;20225;-56
2023/04/30 02:18:56;;;;;;;6.50;4.37;;;7.00;99.90;;;-141.84;72.96;19452.09;5014638;28;20211;-56
2023/04/30 02:21:24;;;;;;;6.33;3.73;;;7.00;99.90;;;-141.84;73.85;19405.34;5015004;28;20205;-55
2023/04/30 02:23:52;;;;;;;5.13;4.23;;;6.90;99.90;;;-141.84;73.80;19399.25;5014728;28;20207;-52
2023/04/30 02:26:21;;;;;;;7.53;4.60;;;6.90;99.90;;;-141.84;74.46;19393.16;5014547;28;20591;-57
2023/04/30 02:28:50;;;;;;;6.17;4.33;;;6.80;99.90;;;-141.84;74.45;19354.56;5033470;28;20198;-54
2023/04/30 02:31:18;;;;;;;6.27;4.30;;;6.80;99.90;;;-141.84;73.92;19405.34;5034538;28;20206;-55
2023/04/30 02:33:48;;;;;;;6.07;3.87;;;6.90;99.90;;;-141.84;74.16;19399.25;5034397;28;20208;-56
2023/04/30 02:36:16;;;;;;;7.97;4.50;;;6.80;99.90;;;-141.84;75.39;19358.63;5034490;28;20257;-51
2023/04/30 02:38:44;;;;;;;5.40;4.50;;;6.80;99.90;;;-141.84;75.88;19366.75;5034537;28;20213;-53
2023/04/30 02:41:12;;;;;;;6.23;4.10;;;6.60;99.90;;;-141.84;76.14;19344.41;5034324;28;20223;-52
2023/04/30 02:43:40;;;;;;;6.73;4.70;;;6.60;99.90;;;-141.84;76.01;19344.41;5017411;28;20202;-54
2023/04/30 02:46:08;;;;;;;5.40;4.40;;;6.60;99.90;;;-141.84;76.44;19350.50;5014883;28;20199;-55
2023/04/30 02:48:36;;;;;;;5.37;4.43;;;6.60;99.90;;;-141.84;76.08;19362.69;5014488;28;20230;-54
2023/04/30 02:51:06;;;;;;;5.67;4.23;;;6.50;99.90;;;-141.84;75.92;19332.19;5014203;28;20210;-54
2023/04/30 02:53:34;;;;;;;6.70;4.67;;;6.60;99.90;;;-141.84;75.79;19374.88;5014318;28;20203;-52
2023/04/30 02:56:02;;;;;;;6.17;4.23;;;6.50;99.90;;;-141.84;75.84;19334.22;5014418;28;20211;-55
2023/04/30 02:58:30;;;;;;;6.60;4.00;;;6.50;99.90;;;-141.84;75.96;19354.56;5014191;28;20233;-52
2023/04/30 03:00:58;;;;;;;5.47;4.03;;;6.50;99.90;;;-141.84;75.37;19354.56;5014172;28;20213;-53
2023/04/30 03:03:27;;;;;;;8.40;4.40;;;6.50;99.90;;;-141.84;74.58;19372.84;5022844;28;20237;-53
2023/04/30 03:05:58;;;;;;;7.60;4.23;;;6.50;99.90;;;-141.84;74.47;19330.16;5016442;28;20322;-54
2023/04/30 03:08:27;;;;;;;7.63;3.87;;;6.50;99.90;;;-141.84;74.94;19366.75;5018799;28;20623;-55
2023/04/30 03:10:56;;;;;;;5.77;4.00;;;6.50;99.90;;;-141.84;75.29;19346.44;5033930;28;20202;-52
2023/04/30 03:13:25;;;;;;;8.13;4.27;;;6.50;99.90;;;-141.84;75.35;19352.53;5033718;28;20209;-51
2023/04/30 03:15:58;;;;;;;6.27;4.33;;;6.40;99.90;;;-141.84;74.87;19372.84;5033594;28;20198;-53
2023/04/30 03:18:28;;;;;;;6.07;4.30;;;6.40;99.90;;;-141.84;75.01;19370.81;5033486;28;20217;-53
2023/04/30 03:20:57;;;;;;;6.33;4.80;;;6.50;99.90;;;-141.84;76.12;19326.09;5033698;28;20224;-53
2023/04/30 03:23:27;;;;;;;5.67;4.80;;;6.40;99.90;;;-141.84;75.70;19338.28;5033703;28;20232;-50
2023/04/30 03:25:56;;;;;;;4.60;4.20;;;6.30;99.90;;;-141.84;76.12;19307.81;5033596;28;20186;-54
2023/04/30 03:28:24;;;;;;;9.07;4.40;;;6.30;99.90;;;-141.84;76.84;19322.03;5033187;28;20190;-57
2023/04/30 03:30:52;;;;;;;9.47;4.80;;;6.20;99.90;;;-141.84;77.44;19332.19;5033336;28;20205;-55
2023/04/30 03:33:21;;;;;;;7.83;5.17;;;6.10;99.90;;;-141.84;77.61;19334.22;5033267;28;20515;-54
2023/04/30 03:35:50;;;;;;;6.13;4.67;;;6.10;99.90;;;-141.84;77.35;19320.00;5033485;28;20202;-54
2023/04/30 03:38:18;;;;;;;7.23;5.03;;;6.10;99.90;;;-141.84;76.87;19336.25;5033248;28;20228;-56
2023/04/30 03:40:48;;;;;;;7.67;5.30;;;6.10;99.90;;;-141.84;77.24;19291.56;5033103;28;20865;-55
2023/04/30 03:43:16;;;;;;;7.10;5.20;;;6.10;99.90;;;-141.84;77.04;19301.72;5019839;28;20206;-54
2023/04/30 03:45:44;;;;;;;7.60;4.80;;;6.10;99.90;;;-141.84;77.56;19324.06;5016779;28;20232;-54
2023/04/30 03:48:13;;;;;;;9.47;5.23;;;6.10;99.90;;;-141.84;77.21;19273.28;5032897;28;20280;-54
2023/04/30 03:50:41;;;;;;;7.87;4.57;;;6.10;99.90;;;-141.84;77.87;19307.81;5033279;28;20238;-55
2023/04/30 03:53:09;;;;;;;8.93;4.73;;;6.00;99.90;;;-141.84;77.27;19297.66;5025434;28;20221;-54
2023/04/30 03:55:37;;;;;;;8.90;4.90;;;6.10;99.90;;;-141.84;76.93;19315.94;5013282;28;20694;-53
2023/04/30 03:58:07;;;;;;;6.33;5.23;;;6.10;99.90;;;-141.84;75.70;19301.72;5012977;28;20716;-54
2023/04/30 04:00:35;;;;;;;8.10;4.43;;;6.20;99.90;;;-141.84;76.70;19299.69;5013706;28;20550;-56
2023/04/30 04:03:04;;;;;;;6.07;4.03;;;6.10;99.90;;;-141.84;76.32;19317.97;5024549;28;20208;-53
2023/04/30 04:05:32;;;;;;;9.93;4.47;;;6.10;99.90;;;-141.84;76.81;19305.78;5032880;28;20300;-53
2023/04/30 04:08:00;;;;;;;7.20;4.73;;;6.10;99.90;;;-141.84;76.23;19338.28;5032804;28;20196;-53
2023/04/30 04:10:28;;;;;;;8.10;4.67;;;6.10;99.90;;;-141.84;75.01;19354.56;5032658;28;20198;-54
2023/04/30 04:12:56;;;;;;;10.27;4.90;;;6.20;99.90;;;-141.84;74.63;19358.63;5032831;28;20217;-55
2023/04/30 04:15:26;;;;;;;7.80;4.73;;;6.30;99.90;;;-141.84;75.51;19358.63;5032761;28;20206;-54
2023/04/30 04:17:54;;;;;;;7.40;4.40;;;6.20;99.90;;;-141.84;75.75;19334.22;5032512;28;20232;-55
2023/04/30 04:20:23;;;;;;;7.20;4.27;;;6.20;99.90;;;-141.84;76.35;19301.72;5032950;28;20236;-54
2023/04/30 04:22:51;;;;;;;6.53;4.10;;;6.20;99.90;;;-141.84;76.29;19311.88;5032617;28;20209;-54
2023/04/30 04:25:19;;;;;;;9.00;4.60;;;6.10;99.90;;;-141.84;75.59;19317.97;5023466;28;20633;-54
2023/04/30 04:27:47;;;;;;;8.33;4.53;;;6.20;99.90;;;-141.84;75.75;19332.19;5032306;28;20225;-56
2023/04/30 04:30:15;;;;;;;7.57;4.57;;;6.20;99.90;;;-141.84;76.53;19285.47;5032637;28;20213;-55
2023/04/30 04:32:47;;;;;;;6.77;4.80;;;6.10;99.90;;;-141.84;76.01;19330.16;5032421;28;20304;-56
2023/04/30 04:35:15;;;;;;;7.40;5.07;;;6.20;99.90;;;-141.84;75.30;19336.25;5032382;28;20188;-54
2023/04/30 04:37:44;;;;;;;10.53;4.80;;;6.20;99.90;;;-141.84;75.33;19315.94;5032625;28;20227;-54
2023/04/30 04:40:12;;;;;;;7.73;4.80;;;6.20;99.90;;;-141.84;74.08;19336.25;5032562;28;20213;-54
2023/04/30 04:42:41;;;;;;;6.87;4.50;;;6.40;99.90;;;-141.84;73.87;19360.66;5013902;28;20224;-56
2023/04/30 04:45:11;;;;;;;8.60;4.40;;;6.40;99.90;;;-141.84;74.23;19366.75;5012602;28;20216;-53
2023/04/30 04:47:39;;;;;;;7.43;4.73;;;6.50;99.90;;;-141.84;73.76;19348.47;5012170;28;20650;-55
2023/04/30 04:50:10;;;;;;;6.67;4.50;;;6.50;99.90;;;-141.84;73.82;19376.91;5012862;28;20202;-54
2023/04/30 04:52:38;;;;;;;6.27;5.10;;;6.60;99.90;;;-141.84;74.21;19383.00;5012527;28;20648;-55
2023/04/30 04:55:08;;;;;;;6.73;4.57;;;6.60;99.90;;;-141.84;73.70;19374.88;5012786;28;20273;-54
2023/04/30 04:57:36;;;;;;;8.83;4.50;;;6.70;99.90;;;-141.84;72.95;19358.63;5013394;28;20585;-52
2023/04/30 05:00:06;;;;;;;9.67;5.17;;;6.80;99.90;;;-141.84;72.48;19409.41;5012663;28;20217;-54
2023/04/30 05:02:35;;;;;;;11.13;5.53;;;6.90;99.90;;;-141.84;72.22;19429.75;5020506;28;20217;-54
2023/04/30 05:05:03;;;;;;;7.73;4.83;;;7.00;99.90;;;-141.84;71.39;19415.50;5032409;28;20206;-54
2023/04/30 05:07:33;;;;;;;6.60;4.53;;;7.20;99.90;;;-141.84;69.01;19492.75;5032482;28;20202;-53
2023/04/30 05:10:02;;;;;;;7.47;4.93;;;7.50;99.90;;;-141.84;67.40;19513.06;5031973;28;20608;-55
2023/04/30 05:12:30;;;;;;;8.27;4.70;;;7.70;99.90;;;-141.84;67.65;19506.97;5034603;28;20202;-56
2023/04/30 05:14:58;;;;;;;9.83;4.87;;;7.80;99.90;;;-141.84;68.17;19466.31;5036193;28;20207;-55
2023/04/30 05:17:26;;;;;;;5.93;4.30;;;7.80;99.90;;;-141.84;67.78;19517.13;5035818;28;20202;-55
2023/04/30 05:19:54;;;;;;;7.77;4.37;;;7.80;99.90;;;-141.84;68.35;19468.34;5036089;28;20305;-51
2023/04/30 05:22:23;;;;;;;7.20;4.60;;;7.80;99.90;;;-141.84;67.82;19472.41;5035945;28;20206;-53
2023/04/30 05:24:52;;;;;;;4.83;4.33;;;7.90;99.90;;;-141.84;68.00;19511.03;5036785;28;20202;-56
2023/04/30 05:27:20;;;;;;;6.57;4.40;;;8.00;99.90;;;-141.84;66.84;19515.09;5035622;28;20242;-52
2023/04/30 05:29:49;;;;;;;9.03;4.73;;;8.00;99.90;;;-141.84;67.04;19537.44;5035823;28;20202;-56
2023/04/30 05:32:17;;;;;;;10.37;4.37;;;8.10;99.90;;;-141.84;66.80;19468.34;5035305;28;20206;-55
2023/04/30 05:34:45;;;;;;;8.27;4.07;;;8.10;99.90;;;-141.84;66.87;19533.38;5035639;28;20229;-55
2023/04/30 05:37:13;;;;;;;7.03;4.53;;;8.20;99.90;;;-141.84;66.74;19523.22;5035254;28;20210;-54
2023/04/30 05:39:41;;;;;;;6.23;4.13;;;8.10;99.90;;;-141.84;67.51;19543.53;5035071;28;20225;-53
2023/04/30 05:42:11;;;;;;;5.57;4.47;;;8.20;99.90;;;-141.84;66.65;19539.47;5035355;28;20190;-50
2023/04/30 05:44:40;;;;;;;4.73;3.73;;;8.20;99.90;;;-141.84;66.78;19586.22;5035600;28;20202;-53
2023/04/30 05:47:08;;;;;;;6.57;4.53;;;8.30;99.90;;;-141.84;66.17;19561.84;5035294;28;20202;-55
2023/04/30 05:49:36;;;;;;;7.70;4.00;;;8.40;99.90;;;-141.84;66.56;19586.22;5033398;28;20198;-56
2023/04/30 05:52:05;;;;;;;6.10;4.23;;;8.50;99.90;;;-141.84;66.44;19604.50;5035366;28;20697;-56
2023/04/30 05:54:33;;;;;;;7.00;3.97;;;8.60;99.90;;;-141.84;65.34;19578.09;5026999;28;20676;-56
2023/04/30 05:57:01;;;;;;;5.83;3.90;;;8.70;99.90;;;-141.84;65.00;19622.81;5028677;28;20651;-57
2023/04/30 05:59:31;;;;;;;6.87;3.63;;;8.80;99.90;;;-141.84;64.88;19630.94;5015302;28;20222;-53
2023/04/30 06:01:59;;;;;;;8.30;4.03;;;8.90;99.90;;;-141.84;64.08;19643.13;5017841;28;20210;-55
2023/04/30 06:04:28;;;;;;;6.33;4.00;;;9.10;99.90;;;-141.84;63.81;19673.59;5015408;28;20227;-54
2023/04/30 06:06:56;;;;;;;8.13;3.97;;;9.20;99.90;;;-141.84;64.01;19675.63;5015566;28;20203;-52
2023/04/30 06:09:24;;;;;;;5.43;3.00;;;9.10;99.90;;;-141.84;64.50;19630.94;5028100;28;20206;-55
2023/04/30 06:11:54;;;;;;;8.43;3.87;;;9.10;99.90;;;-141.84;62.84;19651.25;5034892;28;20205;-53
2023/04/30 06:14:23;;;;;;;7.10;3.40;;;9.20;99.90;;;-141.84;62.90;19655.31;5033360;28;20702;-53
2023/04/30 06:16:53;;;;;;;7.73;3.50;;;9.20;99.90;;;-141.84;62.59;19671.56;5034271;28;20292;-56
2023/04/30 06:19:21;;;;;;;8.43;3.60;;;9.20;99.90;;;-141.84;62.78;19612.63;5034877;28;20214;-54
2023/04/30 06:21:49;;;;;;;6.90;3.90;;;9.20;99.90;;;-141.84;62.98;19661.41;5035733;28;20202;-57
2023/04/30 06:24:17;;;;;;;7.10;3.93;;;9.20;99.90;;;-141.84;63.27;19628.91;5034714;28;20697;-56
2023/04/30 06:26:45;;;;;;;6.90;4.00;;;9.20;99.90;;;-141.84;61.90;19663.44;5035538;28;20237;-53
2023/04/30 06:29:13;;;;;;;6.53;4.03;;;9.30;99.90;;;-141.84;62.30;19695.97;5035193;28;20198;-54
2023/04/30 06:31:41;;;;;;;5.00;3.77;;;9.40;99.90;;;-141.84;62.44;19736.59;5034162;28;20565;-55
2023/04/30 06:34:11;;;;;;;7.87;4.77;;;9.40;99.90;;;-141.84;62.04;19683.78;5033380;28;20224;-54
2023/04/30 06:36:39;;;;;;;6.03;3.77;;;9.40;99.90;;;-141.84;61.22;19691.91;5033658;28;20202;-51
2023/04/30 06:39:07;;;;;;;8.67;3.87;;;9.50;99.90;;;-141.84;60.93;19716.28;5033165;28;20788;-54
2023/04/30 06:41:35;;;;;;;7.43;3.90;;;9.50;99.90;;;-141.84;61.86;19706.13;5033214;28;20210;-54
2023/04/30 06:44:04;;;;;;;9.20;4.50;;;9.50;99.90;;;-141.84;61.49;19704.09;5033401;28;20575;-56
2023/04/30 06:46:33;;;;;;;7.57;3.87;;;9.40;99.90;;;-141.84;61.31;19673.59;5032976;28;20682;-52
2023/04/30 06:49:01;;;;;;;9.50;3.87;;;9.30;99.90;;;-141.84;61.91;19687.84;5033353;28;20604;-53
2023/04/30 06:51:31;;;;;;;5.83;3.23;;;9.20;99.90;;;-141.84;62.24;19671.56;5013261;28;20206;-53
2023/04/30 06:53:59;;;;;;;10.40;4.03;;;9.20;99.90;;;-141.84;61.57;19704.09;5012796;28;20211;-54
2023/04/30 06:56:27;;;;;;;8.30;3.90;;;9.30;99.90;;;-141.84;60.68;19693.94;5020238;28;20232;-55
2023/04/30 06:58:55;;;;;;;9.23;4.37;;;9.40;99.90;;;-141.84;60.36;19761.00;5032281;28;20621;-56
2023/04/30 07:01:23;;;;;;;7.70;4.10;;;9.60;99.90;;;-141.84;57.83;19815.88;5032633;28;20218;-54
2023/04/30 07:03:53;;;;;;;7.00;4.03;;;10.00;99.90;;;-141.84;58.04;19817.91;5031217;28;20206;-53
2023/04/30 07:06:22;;;;;;;5.97;3.60;;;10.10;99.90;;;-141.84;57.76;19891.06;5032463;28;20221;-54
2023/04/30 07:08:51;;;;;;;7.77;3.70;;;10.40;99.90;;;-141.84;56.52;19899.19;5032418;28;20565;-53
2023/04/30 07:11:20;;;;;;;5.70;3.57;;;10.50;99.90;;;-141.84;55.44;19925.63;5031860;28;20202;-55
2023/04/30 07:13:48;;;;;;;5.30;3.50;;;10.70;99.90;;;-141.84;55.10;19956.09;5032990;28;20202;-56
2023/04/30 07:16:16;;;;;;;8.53;3.80;;;10.70;99.90;;;-141.84;54.83;19952.03;5032317;28;20205;-53
2023/04/30 07:18:47;;;;;;;8.97;4.03;;;10.80;99.90;;;-141.84;55.14;19927.66;5031799;28;20301;-54
2023/04/30 07:21:15;;;;;;;5.97;3.13;;;10.60;99.90;;;-141.84;55.13;19887.00;5030634;28;20591;-55
2023/04/30 07:23:44;;;;;;;6.93;3.57;;;10.50;99.90;;;-141.84;56.08;19856.53;5032458;28;20209;-54
2023/04/30 07:26:14;;;;;;;4.83;3.30;;;10.50;99.90;;;-141.84;56.09;19858.56;5032346;28;20603;-52
2023/04/30 07:28:43;;;;;;;8.50;4.00;;;10.60;99.90;;;-141.84;55.37;19935.78;5032427;28;20236;-53
2023/04/30 07:31:11;;;;;;;6.27;3.70;;;10.50;99.90;;;-141.84;55.80;19874.81;5032326;28;20202;-56
2023/04/30 07:33:39;;;;;;;6.63;4.13;;;10.60;99.90;;;-141.84;55.97;19903.25;5032164;28;20206;-53
2023/04/30 07:36:08;;;;;;;8.60;3.93;;;10.70;99.90;;;-141.84;55.34;19903.25;5032046;28;20206;-54
2023/04/30 07:38:36;;;;;;;9.20;3.90;;;10.60;99.90;;;-141.84;55.71;19954.06;5032149;28;20197;-54
2023/04/30 07:41:05;;;;;;;5.70;3.30;;;10.70;99.90;;;-141.84;54.69;19964.25;5032263;28;20241;-56
2023/04/30 07:43:34;;;;;;;7.67;3.80;;;10.80;99.90;;;-141.84;54.33;19964.25;5032036;28;20198;-55
2023/04/30 07:46:03;;;;;;;6.63;3.67;;;11.00;99.90;;;-141.84;54.50;19998.78;5032043;28;20544;-56
2023/04/30 07:48:31;;;;;;;8.53;3.90;;;11.00;99.90;;;-141.84;55.21;19986.59;5032148;28;20210;-53
2023/04/30 07:50:59;;;;;;;6.23;3.67;;;11.10;99.90;;;-141.84;55.47;19954.06;5032260;28;20202;-53
2023/04/30 07:53:28;;;;;;;7.27;5.67;;;10.90;99.90;;;-141.84;56.16;19954.06;5031934;28;20205;-54
2023/04/30 07:55:56;;;;;;;6.10;4.73;;;10.90;99.90;;;-141.84;56.42;19921.56;5031875;28;20201;-55
2023/04/30 07:58:24;;;;;;;7.20;3.73;;;10.80;99.90;;;-141.84;56.16;19903.25;5031055;28;20589;-56
2023/04/30 08:00:54;;;;;;;5.27;4.10;;;10.70;99.90;;;-141.84;55.88;19862.63;5030724;28;20233;-55
2023/04/30 08:03:22;;;;;;;9.87;4.30;;;10.40;99.90;;;-141.84;57.10;19824.00;5031193;28;20206;-54
2023/04/30 08:05:50;;;;;;;6.20;3.77;;;10.30;99.90;;;-141.84;56.49;19856.53;5032194;28;20676;-53
2023/04/30 08:08:18;;;;;;;7.30;3.53;;;10.10;99.90;;;-141.84;56.75;19826.03;5032131;28;20214;-56
2023/04/30 08:10:46;;;;;;;9.00;3.90;;;10.20;99.90;;;-141.84;56.32;19850.41;5031357;28;20519;-51
2023/04/30 08:13:15;;;;;;;7.30;3.63;;;10.20;99.90;;;-141.84;56.60;19848.38;5031397;28;20212;-55
2023/04/30 08:15:43;;;;;;;7.00;3.73;;;10.20;99.90;;;-141.84;56.00;19850.41;5031989;28;20202;-54
2023/04/30 08:18:12;;;;;;;7.67;3.83;;;10.20;99.90;;;-141.84;56.54;19882.94;5031435;28;20206;-54
2023/04/30 08:20:40;;;;;;;5.70;4.03;;;10.20;99.90;;;-141.84;57.23;19870.75;5031463;28;20763;-56
2023/04/30 08:23:09;;;;;;;7.13;3.73;;;10.30;99.90;;;-141.84;54.88;19860.59;5031957;28;20228;-54
2023/04/30 08:25:37;;;;;;;7.87;3.47;;;10.30;99.90;;;-141.84;54.96;19878.88;5031830;28;20209;-49
2023/04/30 08:28:06;;;;;;;6.40;3.50;;;10.40;99.90;;;-141.84;55.07;19901.22;5031208;28;20853;-53
2023/04/30 08:30:34;;;;;;;7.07;3.40;;;10.40;99.90;;;-141.84;54.67;19880.91;5031761;28;20202;-56
2023/04/30 08:33:03;;;;;;;5.53;3.60;;;10.40;99.90;;;-141.84;53.89;19862.63;5031488;28;20210;-56
2023/04/30 08:35:32;;;;;;;6.63;3.07;;;10.40;99.90;;;-141.84;53.13;19927.66;5031696;28;20719;-56
2023/04/30 08:38:00;;;;;;;7.00;3.80;;;10.50;99.90;;;-141.84;54.67;19854.50;5031518;28;20202;-53
2023/04/30 08:40:31;;;;;;;5.87;3.67;;;10.40;99.90;;;-141.84;55.16;19860.59;5031471;28;20721;-53
2023/04/30 08:43:19;;;;;;;7.53;3.40;;;10.40;99.90;;;-141.84;54.29;19840.25;5031264;28;20186;-55
2023/04/30 08:45:50;;;;;;;4.87;3.03;;;10.30;99.90;;;-141.84;54.67;19905.28;5029895;28;20214;-55
2023/04/30 08:48:23;;;;;;;5.23;3.00;;;10.40;99.90;;;-141.84;53.11;19891.06;5015878;28;20186;-53
2023/04/30 08:50:53;;;;;;;6.20;3.10;;;10.50;99.90;;;-141.84;51.74;19919.53;5016036;28;20198;-55
2023/04/30 08:53:22;;;;;;;4.43;3.00;;;10.60;99.90;;;-141.84;51.84;19937.81;5015701;28;20198;-54
2023/04/30 08:55:50;;;;;;;5.53;2.80;;;10.70;99.90;;;-141.84;51.04;19919.53;5016033;28;20210;-55
2023/04/30 08:58:18;;;;;;;4.47;3.30;;;10.70;99.90;;;-141.84;49.74;19952.03;5015396;28;20210;-55
2023/04/30 09:00:46;;;;;;;6.30;3.10;;;10.80;99.90;;;-141.84;50.12;19972.38;5015678;28;20620;-58
2023/04/30 09:03:15;;;;;;;8.13;3.10;;;10.80;99.90;;;-141.84;49.38;19960.16;5029351;28;20228;-54
2023/04/30 09:05:43;;;;;;;5.30;2.47;;;10.80;99.90;;;-141.84;48.25;19952.03;5035385;28;20212;-54
2023/04/30 09:08:19;;;;;;;4.17;2.73;;;10.80;99.90;;;-141.84;48.94;19947.97;5035348;28;20568;-55
2023/04/30 09:10:47;;;;;;;5.50;2.60;;;10.80;99.90;;;-141.84;49.70;19964.25;5034969;28;20545;-55
2023/04/30 09:13:15;;;;;;;4.40;2.80;;;10.80;99.90;;;-141.84;47.96;19986.59;5035181;28;20441;-53
2023/04/30 09:15:44;;;;;;;4.57;2.20;;;11.00;99.90;;;-141.84;46.60;20013.00;5035490;28;20568;-54
2023/04/30 09:18:16;;;;;;;4.23;2.53;;;11.10;99.90;;;-141.84;45.73;20010.97;5035011;28;20236;-54
2023/04/30 09:20:56;;;;;;;3.97;2.37;;;11.20;99.90;;;-141.84;45.67;20041.47;5034884;28;20294;-55
2023/04/30 09:23:26;;;;;;;4.60;2.07;;;11.10;99.90;;;-141.84;44.81;20061.78;5034994;28;20213;-53
2023/04/30 09:25:54;;;;;;;4.80;2.60;;;11.20;99.90;;;-141.84;45.55;20071.97;5034771;28;20213;-57
2023/04/30 09:28:24;;;;;;;6.93;3.07;;;11.30;99.90;;;-141.84;46.21;20033.34;5034930;28;20193;-53
2023/04/30 09:30:53;;;;;;;4.40;2.60;;;11.40;99.90;;;-141.84;45.76;20051.63;5034406;28;20701;-53
2023/04/30 09:33:21;;;;;;;5.73;2.77;;;11.40;99.90;;;-141.84;47.28;20025.22;5034591;28;20202;-56
2023/04/30 09:35:49;;;;;;;3.73;2.47;;;11.40;99.90;;;-141.84;47.91;20071.97;5034884;28;20214;-54
2023/04/30 09:38:30;;;;;;;3.37;2.40;;;11.50;99.90;;;-141.84;42.71;20120.75;5034702;28;20213;-53
2023/04/30 09:41:01;;;;;;;4.67;2.33;;;11.60;99.90;;;-141.84;43.30;20094.31;5034190;28;20210;-54
2023/04/30 09:43:30;;;;;;;4.27;2.37;;;11.60;99.90;;;-141.84;43.97;20120.75;5034432;28;20566;-52
2023/04/30 09:45:59;;;;;;;3.07;2.00;;;11.50;99.90;;;-141.84;43.64;20071.97;5030094;28;20241;-56
2023/04/30 09:48:28;;;;;;;4.57;2.60;;;11.60;99.90;;;-141.84;44.20;20098.38;5014672;28;20237;-50
2023/04/30 09:50:56;;;;;;;6.03;2.70;;;11.70;99.90;;;-141.84;45.11;20163.41;5014734;28;20205;-56
2023/04/30 09:53:24;;;;;;;4.97;2.47;;;11.80;99.90;;;-141.84;45.27;20098.38;5014779;28;20207;-55
2023/04/30 09:55:58;;;;;;;6.63;2.30;;;11.80;99.90;;;-141.84;45.21;20112.59;5014783;28;20218;-55
2023/04/30 09:58:29;;;;;;;6.10;2.50;;;11.70;99.90;;;-141.84;43.88;20112.59;5019013;28;20231;-54
2023/04/30 10:01:03;;;;;;;3.47;2.40;;;11.70;99.90;;;-141.84;44.18;20082.13;5033878;28;20561;-55
2023/04/30 10:03:32;;;;;;;6.60;2.90;;;11.60;99.90;;;-141.84;44.86;20108.53;5034149;28;20276;-54
2023/04/30 10:06:01;;;;;;;4.87;2.63;;;11.70;99.90;;;-141.84;45.45;20061.78;5034276;28;20202;-55
2023/04/30 10:08:36;;;;;;;5.00;2.87;;;11.60;99.90;;;-141.84;46.17;20104.47;5034323;28;20256;-53
2023/04/30 10:11:08;;;;;;;5.20;3.03;;;11.60;99.90;;;-141.84;47.50;20100.41;5033944;28;20197;-52
2023/04/30 10:13:44;;;;;;;5.63;3.13;;;11.70;99.90;;;-141.84;47.27;20132.94;5034477;28;20212;-51
2023/04/30 10:16:23;;;;;;;4.03;2.60;;;11.70;99.90;;;-141.84;46.07;20147.16;5033860;28;20186;-54
2023/04/30 10:18:54;;;;;;;4.03;2.80;;;11.90;99.90;;;-141.84;43.84;20157.31;5033902;28;20239;-55
2023/04/30 10:21:26;;;;;;;6.10;2.83;;;12.00;99.90;;;-141.84;44.54;20120.75;5033835;28;20221;-56